createdAt,value
2023-05-19T00:00:32.196Z,10.30
2023-05-19T00:05:55.073Z,10.27
2023-05-19T00:11:00.804Z,10.19
2023-05-19T00:16:06.498Z,10.15
2023-05-19T00:21:11.740Z,10.10
2023-05-19T00:26:16.429Z,10.11
2023-05-19T00:31:22.195Z,10.15
2023-05-19T00:36:26.616Z,10.18
2023-05-19T00:41:31.095Z,10.15
2023-05-19T00:46:35.271Z,10.10
2023-05-19T00:51:41.614Z,10.09
2023-05-19T00:56:45.953Z,10.04
2023-05-19T01:01:50.960Z,10.01
2023-05-19T01:06:57.307Z,10.00
2023-05-19T01:12:02.728Z,10.00
2023-05-19T01:17:23.508Z,9.97
2023-05-19T01:22:55.867Z,9.94
2023-05-19T01:28:18.528Z,9.88
2023-05-19T01:33:25.017Z,9.85
2023-05-19T01:38:30.210Z,9.84
2023-05-19T01:43:36.001Z,9.83
2023-05-19T01:48:42.665Z,9.81
2023-05-19T01:53:46.721Z,9.81
2023-05-19T01:59:04.629Z,9.78
2023-05-19T02:04:44.280Z,9.74
2023-05-19T02:10:12.345Z,9.75
2023-05-19T02:15:23.176Z,9.76
2023-05-19T02:20:27.533Z,9.72
2023-05-19T02:25:32.189Z,9.73
2023-05-19T02:30:37.114Z,9.74
2023-05-19T02:35:41.459Z,9.75
2023-05-19T02:40:45.151Z,9.80
2023-05-19T02:45:49.646Z,9.81
2023-05-19T02:50:55.316Z,9.78
2023-05-19T02:56:00.495Z,9.69
2023-05-19T03:01:04.911Z,9.67
2023-05-19T03:06:10.035Z,9.69
2023-05-19T03:11:16.162Z,9.71
2023-05-19T03:16:20.937Z,9.71
2023-05-19T03:21:24.750Z,9.73
2023-05-19T03:26:29.702Z,9.75
2023-05-19T03:31:33.767Z,9.76
2023-05-19T03:36:40.613Z,9.79
2023-05-19T03:41:44.312Z,9.80
2023-05-19T03:46:51.236Z,9.81
2023-05-19T03:51:56.438Z,9.80
2023-05-19T03:57:00.760Z,9.80
2023-05-19T04:02:05.837Z,9.83
2023-05-19T04:07:10.189Z,9.85
2023-05-19T04:12:14.944Z,9.89
2023-05-19T04:17:19.015Z,9.92
2023-05-19T04:22:23.453Z,9.96
2023-05-19T04:27:29.570Z,10.03
2023-05-19T04:32:33.886Z,10.08
2023-05-19T04:37:39.641Z,10.13
2023-05-19T04:42:46.562Z,10.17
2023-05-19T04:47:52.982Z,10.19
2023-05-19T04:52:59.408Z,10.20
2023-05-19T04:58:02.826Z,10.21
2023-05-19T05:03:08.449Z,10.22
2023-05-19T05:08:12.638Z,10.24
2023-05-19T05:13:17.371Z,10.30
2023-05-19T05:18:22.759Z,10.37
2023-05-19T05:23:27.759Z,10.47
2023-05-19T05:28:33.520Z,10.58
2023-05-19T05:33:39.594Z,10.68
2023-05-19T05:38:43.992Z,10.74
2023-05-19T05:43:48.829Z,10.83
2023-05-19T05:48:56.777Z,10.92
2023-05-19T05:54:02.827Z,11.04
2023-05-19T05:59:08.140Z,11.14
2023-05-19T06:04:12.235Z,11.20
2023-05-19T06:09:17.152Z,11.22
2023-05-19T06:14:22.564Z,11.28
2023-05-19T06:19:27.135Z,11.37
2023-05-19T06:24:32.310Z,11.50
2023-05-19T06:29:36.185Z,11.65
2023-05-19T06:34:41.561Z,11.74
2023-05-19T06:39:45.740Z,11.88
2023-05-19T06:44:51.405Z,11.98
2023-05-19T06:49:55.915Z,12.01
2023-05-19T06:55:00.482Z,12.05
2023-05-19T07:00:07.721Z,12.05
2023-05-19T07:05:12.532Z,12.03
2023-05-19T07:10:17.591Z,12.04
2023-05-19T07:15:22.771Z,12.09
2023-05-19T07:20:27.179Z,12.15
2023-05-19T07:25:31.754Z,12.23
2023-05-19T07:30:38.071Z,12.28
2023-05-19T07:35:43.606Z,12.42
2023-05-19T07:40:49.761Z,12.71
2023-05-19T07:45:56.577Z,12.92
2023-05-19T07:51:00.973Z,12.99
2023-05-19T07:56:05.609Z,12.92
2023-05-19T08:01:09.784Z,12.88
2023-05-19T08:06:14.376Z,12.90
2023-05-19T08:11:20.029Z,12.92
2023-05-19T08:16:24.955Z,12.89
2023-05-19T08:21:29.364Z,12.85
2023-05-19T08:26:35.197Z,12.74
2023-05-19T08:31:41.966Z,12.67
2023-05-19T08:36:47.196Z,12.59
2023-05-19T08:41:51.440Z,12.54
2023-05-19T08:46:58.962Z,12.52
2023-05-19T08:52:24.684Z,12.53
2023-05-19T08:57:31.471Z,12.50
2023-05-19T09:02:50.315Z,12.55
2023-05-19T09:08:05.750Z,12.66
2023-05-19T09:13:11.117Z,12.63
2023-05-19T09:18:15.894Z,12.60
2023-05-19T09:23:21.706Z,12.71
2023-05-19T09:28:28.745Z,12.94
2023-05-19T09:33:36.484Z,13.06
2023-05-19T09:38:41.163Z,13.02
2023-05-19T09:43:58.869Z,12.97
2023-05-19T09:49:12.155Z,12.90
2023-05-19T09:54:17.414Z,12.94
2023-05-19T09:59:26.102Z,13.11
2023-05-19T10:04:32.521Z,13.22
2023-05-19T10:09:38.993Z,13.34
2023-05-19T10:14:43.558Z,13.39
2023-05-19T10:19:51.712Z,13.24
2023-05-19T10:24:58.712Z,13.12
2023-05-19T10:30:38.419Z,13.14
2023-05-19T10:36:09.399Z,13.22
2023-05-19T10:41:37.907Z,13.28
2023-05-19T10:46:43.822Z,13.28
2023-05-19T10:51:49.439Z,13.25
2023-05-19T10:57:00.020Z,13.17
2023-05-19T11:02:10.728Z,13.10
2023-05-19T11:07:23.127Z,13.23
2023-05-19T11:12:31.582Z,13.35
2023-05-19T11:17:40.661Z,13.35
2023-05-19T11:23:09.887Z,13.34
2023-05-19T11:28:30.352Z,13.36
2023-05-19T11:33:41.870Z,13.32
2023-05-19T11:38:52.629Z,13.28
2023-05-19T11:44:04.788Z,13.21
2023-05-19T11:49:21.739Z,13.19
2023-05-19T11:54:37.272Z,13.25
2023-05-19T11:59:47.446Z,13.28
2023-05-19T12:04:54.880Z,13.33
2023-05-19T12:10:00.891Z,13.36
2023-05-19T12:15:05.680Z,13.40
2023-05-19T12:20:12.980Z,13.44
2023-05-19T12:25:18.548Z,13.45
2023-05-19T12:30:32.886Z,13.42
2023-05-19T12:35:40.182Z,13.37
2023-05-19T12:40:48.383Z,13.36
2023-05-19T12:45:55.572Z,13.32
2023-05-19T12:51:01.273Z,13.30
2023-05-19T12:56:17.542Z,13.31
2023-05-19T13:01:25.107Z,13.34
2023-05-19T13:06:31.806Z,13.41
2023-05-19T13:11:38.827Z,13.48
2023-05-19T13:16:44.790Z,13.51
2023-05-19T13:21:51.670Z,13.46
2023-05-19T13:26:58.403Z,13.39
2023-05-19T13:32:04.157Z,13.36
2023-05-19T13:37:15.226Z,13.34
2023-05-19T13:42:21.210Z,13.28
2023-05-19T13:47:26.313Z,13.27
2023-05-19T13:52:31.806Z,13.29
2023-05-19T13:57:37.684Z,13.26
2023-05-19T14:02:44.701Z,13.25
2023-05-19T14:07:49.898Z,13.29
2023-05-19T14:13:25.763Z,13.32
2023-05-19T14:18:22.629Z,13.39
2023-05-19T14:23:32.694Z,13.48
2023-05-19T14:28:39.198Z,13.58
2023-05-19T14:33:44.311Z,13.68
2023-05-19T14:38:49.254Z,13.81
2023-05-19T14:43:54.979Z,13.90
2023-05-19T14:49:03.665Z,13.87
2023-05-19T14:54:10.544Z,13.78
2023-05-19T14:59:17.551Z,13.69
2023-05-19T15:04:26.534Z,13.68
2023-05-19T15:09:34.932Z,13.71
2023-05-19T15:14:40.421Z,13.67
2023-05-19T15:19:46.533Z,13.65
2023-05-19T15:24:52.916Z,13.68
2023-05-19T15:30:00.502Z,13.69
2023-05-19T15:35:06.588Z,13.60
2023-05-19T15:40:16.792Z,13.53
2023-05-19T15:45:24.167Z,13.42
2023-05-19T15:50:30.446Z,13.37
2023-05-19T15:55:36.776Z,13.35
2023-05-19T16:00:44.129Z,13.40
2023-05-19T16:05:54.192Z,13.40
2023-05-19T16:11:02.506Z,13.44
2023-05-19T16:16:08.004Z,13.44
2023-05-19T16:21:14.334Z,13.44
2023-05-19T16:26:19.958Z,13.42
2023-05-19T16:31:25.438Z,13.35
2023-05-19T16:36:32.687Z,13.31
2023-05-19T16:41:40.622Z,13.29
2023-05-19T16:46:46.431Z,13.26
2023-05-19T16:51:53.432Z,13.24
2023-05-19T16:57:04.675Z,13.23
2023-05-19T17:02:09.672Z,13.22
2023-05-19T17:07:17.985Z,13.24
2023-05-19T17:12:23.528Z,13.26
2023-05-19T17:17:28.326Z,13.28
2023-05-19T17:22:34.122Z,13.28
2023-05-19T17:27:39.696Z,13.31
2023-05-19T17:32:45.078Z,13.32
2023-05-19T17:37:50.794Z,13.30
2023-05-19T17:42:57.024Z,13.26
2023-05-19T17:48:02.275Z,13.25
2023-05-19T17:53:07.334Z,13.22
2023-05-19T17:58:13.288Z,13.15
2023-05-19T18:03:19.228Z,13.08
2023-05-19T18:08:27.057Z,13.00
2023-05-19T18:13:32.733Z,12.95
2023-05-19T18:18:41.304Z,12.90
2023-05-19T18:23:47.665Z,12.83
2023-05-19T18:28:53.486Z,12.79
2023-05-19T18:33:58.485Z,12.79
2023-05-19T18:39:06.133Z,12.80
2023-05-19T18:44:12.225Z,12.81
2023-05-19T18:49:17.846Z,12.81
2023-05-19T18:54:23.234Z,12.81
2023-05-19T18:59:28.320Z,12.80
2023-05-19T19:04:32.698Z,12.77
2023-05-19T19:09:38.125Z,12.73
2023-05-19T19:14:43.141Z,12.69
2023-05-19T19:19:47.772Z,12.66
2023-05-19T19:24:53.858Z,12.63
2023-05-19T19:29:59.340Z,12.60
2023-05-19T19:35:04.314Z,12.56
2023-05-19T19:40:10.220Z,12.54
2023-05-19T19:45:15.849Z,12.52
2023-05-19T19:50:21.028Z,12.49
2023-05-19T19:55:26.314Z,12.47
2023-05-19T20:00:31.602Z,12.46
2023-05-19T20:05:38.537Z,12.46
2023-05-19T20:10:43.645Z,12.43
2023-05-19T20:15:48.741Z,12.38
2023-05-19T20:20:54.027Z,12.35
2023-05-19T20:26:10.875Z,12.35
2023-05-19T20:31:17.052Z,12.35
2023-05-19T20:36:20.543Z,12.35
2023-05-19T20:41:25.431Z,12.35
2023-05-19T20:46:30.218Z,12.34
2023-05-19T20:51:35.129Z,12.31
2023-05-19T20:56:39.230Z,12.30
2023-05-19T21:01:43.961Z,12.29
2023-05-19T21:06:48.841Z,12.28
2023-05-19T21:11:58.539Z,12.27
2023-05-19T21:17:04.705Z,12.20
2023-05-19T21:22:10.104Z,12.15
2023-05-19T21:27:15.519Z,12.15
2023-05-19T21:32:20.388Z,12.14
2023-05-19T21:37:24.865Z,12.12
2023-05-19T21:42:30.502Z,12.11
2023-05-19T21:47:35.200Z,12.12
2023-05-19T21:52:39.016Z,12.12
2023-05-19T21:57:43.277Z,12.13
2023-05-19T22:02:47.275Z,12.13
2023-05-19T22:07:52.033Z,12.13
2023-05-19T22:12:58.665Z,12.12
2023-05-19T22:18:04.061Z,12.15
2023-05-19T22:23:09.406Z,12.16
2023-05-19T22:28:14.955Z,12.19
2023-05-19T22:33:20.322Z,12.19
2023-05-19T22:38:24.855Z,12.20
2023-05-19T22:43:28.981Z,12.18
2023-05-19T22:48:37.237Z,12.17
2023-05-19T22:53:43.598Z,12.17
2023-05-19T22:58:48.871Z,12.15
2023-05-19T23:03:55.929Z,12.14
2023-05-19T23:09:05.055Z,12.13
2023-05-19T23:14:10.379Z,12.12
2023-05-19T23:19:15.483Z,12.11
2023-05-19T23:24:19.488Z,12.08
2023-05-19T23:29:24.485Z,12.06
2023-05-19T23:34:32.694Z,12.04
2023-05-19T23:39:38.991Z,12.05
2023-05-19T23:44:43.887Z,12.05
2023-05-19T23:49:49.333Z,12.06
2023-05-19T23:54:55.340Z,12.05
